createdAt,value
2023-10-15T00:00:26.706Z,96139.59
2023-10-15T00:02:55.068Z,96137.97
2023-10-15T00:05:26.507Z,96154.28
2023-10-15T00:07:54.375Z,96150.13
2023-10-15T00:10:26.263Z,96120.91
2023-10-15T00:12:55.295Z,96150.34
2023-10-15T00:15:25.440Z,96135.69
2023-10-15T00:17:58.240Z,96145.09
2023-10-15T00:20:29.086Z,96147.13
2023-10-15T00:22:56.615Z,96121.34
2023-10-15T00:25:24.247Z,96156.13
2023-10-15T00:27:55.751Z,96151.63
2023-10-15T00:30:23.846Z,96145.34
2023-10-15T00:32:53.807Z,96144.13
2023-10-15T00:35:23.067Z,96151.50
2023-10-15T00:37:55.759Z,96151.56
2023-10-15T00:40:25.929Z,96150.53
2023-10-15T00:42:54.159Z,96132.09
2023-10-15T00:45:23.024Z,96085.72
2023-10-15T00:48:03.649Z,96143.75
2023-10-15T00:50:37.040Z,96141.72
2023-10-15T00:53:07.620Z,96149.25
2023-10-15T00:55:38.061Z,96148.94
2023-10-15T00:58:09.465Z,96148.03
2023-10-15T01:00:49.924Z,96100.63
2023-10-15T01:03:18.530Z,96130.91
2023-10-15T01:05:54.456Z,96143.44
2023-10-15T01:08:33.028Z,96137.63
2023-10-15T01:11:11.081Z,96142.84
2023-10-15T01:13:40.563Z,96147.72
2023-10-15T01:16:09.808Z,96142.25
2023-10-15T01:18:38.265Z,96151.88
2023-10-15T01:21:10.752Z,96149.66
2023-10-15T01:23:56.312Z,96142.59
2023-10-15T01:26:26.649Z,96141.81
2023-10-15T01:28:54.665Z,96136.09
2023-10-15T01:31:25.726Z,96152.06
2023-10-15T01:33:54.531Z,96152.09
2023-10-15T01:36:28.080Z,96143.91
2023-10-15T01:38:58.836Z,96119.53
2023-10-15T01:41:28.608Z,96131.00
2023-10-15T01:43:58.176Z,96133.25
2023-10-15T01:46:41.596Z,96125.03
2023-10-15T01:49:18.630Z,96110.13
2023-10-15T01:51:46.924Z,96117.47
2023-10-15T01:54:14.452Z,96124.97
2023-10-15T01:56:45.769Z,96046.88
2023-10-15T01:59:13.351Z,96128.94
2023-10-15T02:01:50.211Z,96124.97
2023-10-15T02:04:20.829Z,96088.41
2023-10-15T02:06:48.329Z,96135.91
2023-10-15T02:09:22.285Z,96134.75
2023-10-15T02:11:55.219Z,96137.38
2023-10-15T02:14:24.304Z,96126.78
2023-10-15T02:16:52.809Z,96131.19
2023-10-15T02:19:33.221Z,96119.44
2023-10-15T02:22:00.808Z,96124.84
2023-10-15T02:24:33.267Z,96137.22
2023-10-15T02:27:06.152Z,96116.91
2023-10-15T02:29:37.214Z,96145.41
2023-10-15T02:32:22.017Z,96115.03
2023-10-15T02:34:52.335Z,96129.94
2023-10-15T02:37:20.688Z,96133.44
2023-10-15T02:39:51.944Z,96130.25
2023-10-15T02:42:22.990Z,96133.34
2023-10-15T02:44:52.035Z,96124.69
2023-10-15T02:47:29.844Z,96091.00
2023-10-15T02:50:02.001Z,96119.66
2023-10-15T02:52:36.826Z,96127.03
2023-10-15T02:55:10.538Z,96124.09
2023-10-15T02:57:40.996Z,96034.38
2023-10-15T03:00:29.272Z,96122.91
2023-10-15T03:02:57.084Z,96113.03
2023-10-15T03:05:31.410Z,96114.81
2023-10-15T03:08:00.812Z,96087.91
2023-10-15T03:10:45.820Z,96107.44
2023-10-15T03:13:15.372Z,96114.28
2023-10-15T03:15:49.849Z,96111.06
2023-10-15T03:18:23.118Z,96106.63
2023-10-15T03:20:51.273Z,96082.28
2023-10-15T03:23:18.925Z,96128.75
2023-10-15T03:25:49.321Z,96103.88
2023-10-15T03:28:19.318Z,96121.69
2023-10-15T03:30:47.020Z,96123.09
2023-10-15T03:33:14.870Z,96094.31
2023-10-15T03:35:46.708Z,96114.81
2023-10-15T03:38:16.378Z,96090.38
2023-10-15T03:40:51.480Z,96099.84
2023-10-15T03:43:22.533Z,96124.47
2023-10-15T03:45:53.403Z,96128.06
2023-10-15T03:48:23.608Z,96139.16
2023-10-15T03:50:59.024Z,96134.13
2023-10-15T03:53:30.120Z,96132.78
2023-10-15T03:55:58.952Z,96134.66
2023-10-15T03:58:28.075Z,96132.78
2023-10-15T04:01:12.704Z,96119.06
2023-10-15T04:03:43.840Z,96130.31
2023-10-15T04:06:14.390Z,96133.13
2023-10-15T04:09:00.130Z,96104.22
2023-10-15T04:11:31.690Z,96121.81
2023-10-15T04:14:04.612Z,96021.91
2023-10-15T04:16:32.780Z,96120.00
2023-10-15T04:19:01.853Z,96101.88
2023-10-15T04:21:29.465Z,96119.34
2023-10-15T04:23:58.072Z,96121.63
2023-10-15T04:26:30.607Z,96126.47
2023-10-15T04:29:08.070Z,96132.72
2023-10-15T04:31:35.755Z,96134.53
2023-10-15T04:34:03.440Z,96133.16
2023-10-15T04:36:41.664Z,96120.88
2023-10-15T04:39:13.483Z,96131.88
2023-10-15T04:41:41.965Z,96135.72
2023-10-15T04:44:15.274Z,96139.91
2023-10-15T04:46:44.185Z,96111.66
2023-10-15T04:49:16.323Z,96142.59
2023-10-15T04:51:44.647Z,96138.72
2023-10-15T04:54:13.590Z,96138.44
2023-10-15T04:56:41.161Z,96138.69
2023-10-15T04:59:08.854Z,96136.09
2023-10-15T05:01:37.924Z,96055.28
2023-10-15T05:04:06.019Z,96119.53
2023-10-15T05:06:33.586Z,96106.69
2023-10-15T05:09:01.175Z,96138.28
2023-10-15T05:11:29.446Z,96137.69
2023-10-15T05:13:57.124Z,96133.47
2023-10-15T05:16:24.984Z,96119.28
2023-10-15T05:18:54.196Z,96116.50
2023-10-15T05:21:21.756Z,96141.38
2023-10-15T05:23:49.334Z,96135.59
2023-10-15T05:26:17.305Z,96131.88
2023-10-15T05:28:44.964Z,96129.25
2023-10-15T05:31:12.862Z,96087.84
2023-10-15T05:33:40.455Z,96141.06
2023-10-15T05:36:09.532Z,96139.47
2023-10-15T05:38:37.052Z,96114.22
2023-10-15T05:41:04.756Z,96144.13
2023-10-15T05:43:32.470Z,96137.06
2023-10-15T05:46:00.053Z,96142.81
2023-10-15T05:48:27.638Z,96143.53
2023-10-15T05:50:55.852Z,96143.97
2023-10-15T05:53:25.351Z,96145.16
2023-10-15T05:55:52.921Z,96141.88
2023-10-15T05:58:20.598Z,96143.97
2023-10-15T06:00:48.206Z,96142.53
2023-10-15T06:03:16.107Z,96152.84
2023-10-15T06:05:43.846Z,96108.53
2023-10-15T06:08:11.500Z,96102.53
2023-10-15T06:10:40.897Z,96149.41
2023-10-15T06:13:08.572Z,96103.28
2023-10-15T06:15:36.643Z,96149.31
2023-10-15T06:18:04.648Z,96151.06
2023-10-15T06:20:32.425Z,96156.03
2023-10-15T06:23:04.967Z,96148.31
2023-10-15T06:25:32.864Z,96149.44
2023-10-15T06:28:02.604Z,96158.69
2023-10-15T06:30:30.179Z,96155.88
2023-10-15T06:32:57.716Z,96163.06
2023-10-15T06:35:26.503Z,96158.34
2023-10-15T06:37:57.237Z,96173.59
2023-10-15T06:40:25.640Z,96161.63
2023-10-15T06:43:01.117Z,96173.72
2023-10-15T06:45:30.452Z,96173.66
2023-10-15T06:47:58.301Z,96186.94
2023-10-15T06:50:27.353Z,96178.09
2023-10-15T06:52:56.265Z,96164.13
2023-10-15T06:55:24.151Z,96197.59
2023-10-15T06:57:52.335Z,96193.13
2023-10-15T07:00:23.699Z,96198.38
2023-10-15T07:02:54.565Z,96207.38
2023-10-15T07:05:24.697Z,96202.13
2023-10-15T07:07:52.587Z,96190.81
2023-10-15T07:10:20.275Z,96201.22
2023-10-15T07:12:49.039Z,96210.56
2023-10-15T07:15:18.131Z,96206.81
2023-10-15T07:17:46.793Z,96213.97
2023-10-15T07:20:19.505Z,96205.09
2023-10-15T07:22:50.117Z,96203.84
2023-10-15T07:25:18.637Z,96215.69
2023-10-15T07:27:47.658Z,96218.53
2023-10-15T07:30:16.492Z,96220.03
2023-10-15T07:32:46.392Z,96236.22
2023-10-15T07:35:17.031Z,96223.59
2023-10-15T07:37:47.110Z,96215.72
2023-10-15T07:40:19.337Z,96225.50
2023-10-15T07:42:49.379Z,96228.50
2023-10-15T07:45:17.553Z,96223.97
2023-10-15T07:47:45.621Z,96196.56
2023-10-15T07:50:15.128Z,96236.63
2023-10-15T07:52:45.543Z,96218.50
2023-10-15T07:55:13.153Z,96236.00
2023-10-15T07:57:40.662Z,96237.44
2023-10-15T08:00:10.194Z,96237.72
2023-10-15T08:02:37.890Z,96211.31
2023-10-15T08:05:08.062Z,96233.31
2023-10-15T08:07:38.061Z,96233.56
2023-10-15T08:10:07.573Z,96233.06
2023-10-15T08:12:35.052Z,96230.97
2023-10-15T08:15:02.847Z,96235.69
2023-10-15T08:17:30.813Z,96235.84
2023-10-15T08:19:58.981Z,96255.31
2023-10-15T08:22:29.106Z,96255.69
2023-10-15T08:24:57.303Z,96256.03
2023-10-15T08:27:27.312Z,96205.00
2023-10-15T08:29:54.850Z,96232.84
2023-10-15T08:32:22.513Z,96252.59
2023-10-15T08:34:50.493Z,96254.56
2023-10-15T08:37:17.987Z,96250.91
2023-10-15T08:39:45.474Z,96249.31
2023-10-15T08:42:15.523Z,96270.13
2023-10-15T08:44:45.563Z,96255.03
2023-10-15T08:47:14.777Z,96264.66
2023-10-15T08:49:48.840Z,96262.94
2023-10-15T08:52:18.366Z,96265.34
2023-10-15T08:54:47.215Z,96275.06
2023-10-15T08:57:15.857Z,96262.44
2023-10-15T08:59:45.253Z,96291.84
2023-10-15T09:02:15.027Z,96296.06
2023-10-15T09:04:46.043Z,96288.06
2023-10-15T09:07:15.753Z,96299.28
2023-10-15T09:09:43.750Z,96303.16
2023-10-15T09:12:13.884Z,96307.41
2023-10-15T09:14:43.406Z,96304.63
2023-10-15T09:17:16.130Z,96318.38
2023-10-15T09:19:44.624Z,96298.34
2023-10-15T09:22:15.632Z,96307.03
2023-10-15T09:24:43.209Z,96320.78
2023-10-15T09:27:10.786Z,96328.22
2023-10-15T09:29:39.629Z,96333.25
2023-10-15T09:32:07.935Z,96317.44
2023-10-15T09:34:38.252Z,96341.75
2023-10-15T09:37:07.754Z,96351.50
2023-10-15T09:39:36.839Z,96345.28
2023-10-15T09:42:04.690Z,96351.25
2023-10-15T09:44:33.503Z,96340.38
2023-10-15T09:47:02.800Z,96341.97
2023-10-15T09:49:32.333Z,96312.88
2023-10-15T09:52:06.032Z,96352.50
2023-10-15T09:54:35.433Z,96352.38
2023-10-15T09:57:03.477Z,96347.75
2023-10-15T09:59:32.032Z,96355.53
2023-10-15T10:02:07.085Z,96332.22
2023-10-15T10:04:54.421Z,96331.78
2023-10-15T10:07:49.194Z,96354.59
2023-10-15T10:11:01.144Z,96340.63
2023-10-15T10:14:05.051Z,96355.94
2023-10-15T10:16:33.464Z,96329.97
2023-10-15T10:19:02.882Z,96354.69
2023-10-15T10:21:31.872Z,96317.69
2023-10-15T10:24:04.000Z,96354.25
2023-10-15T10:26:33.981Z,96211.66
2023-10-15T10:29:03.134Z,96321.00
2023-10-15T10:31:36.456Z,96367.78
2023-10-15T10:34:05.620Z,96317.34
2023-10-15T10:36:43.443Z,96380.81
2023-10-15T10:39:16.115Z,96387.53
2023-10-15T10:41:45.958Z,96384.75
2023-10-15T10:44:35.565Z,96336.97
2023-10-15T10:47:19.688Z,96334.03
2023-10-15T10:49:57.541Z,96395.72
2023-10-15T10:52:35.793Z,96319.44
2023-10-15T10:55:38.190Z,96392.50
2023-10-15T10:58:10.142Z,96389.50
2023-10-15T11:00:39.487Z,96390.72
2023-10-15T11:03:09.621Z,96331.28
2023-10-15T11:05:37.839Z,96394.75
2023-10-15T11:08:06.148Z,96395.41
2023-10-15T11:10:35.465Z,96393.09
2023-10-15T11:13:03.461Z,96394.25
2023-10-15T11:15:31.621Z,96404.06
2023-10-15T11:17:59.900Z,96390.25
2023-10-15T11:20:28.885Z,96378.19
2023-10-15T11:23:00.526Z,96375.47
2023-10-15T11:25:28.361Z,96385.91
2023-10-15T11:27:57.424Z,96404.25
2023-10-15T11:30:25.651Z,96408.94
2023-10-15T11:32:53.565Z,96389.66
2023-10-15T11:35:21.938Z,96409.00
2023-10-15T11:37:52.344Z,96425.75
2023-10-15T11:40:21.448Z,96385.34
2023-10-15T11:42:52.146Z,96416.00
2023-10-15T11:45:31.253Z,96421.66
2023-10-15T11:47:59.963Z,96420.03
2023-10-15T11:50:30.564Z,96428.28
2023-10-15T11:53:00.015Z,96403.44
2023-10-15T11:55:32.834Z,96398.97
2023-10-15T11:58:11.755Z,96417.97
2023-10-15T12:00:42.911Z,96422.34
2023-10-15T12:03:10.904Z,96364.09
2023-10-15T12:05:38.828Z,96416.16
2023-10-15T12:08:07.278Z,96430.41
2023-10-15T12:10:37.917Z,96421.72
2023-10-15T12:13:05.638Z,96356.94
2023-10-15T12:15:35.517Z,96425.66
2023-10-15T12:18:07.416Z,96404.59
2023-10-15T12:20:35.513Z,96352.31
2023-10-15T12:23:03.777Z,96350.19
2023-10-15T12:25:31.535Z,96425.28
2023-10-15T12:27:59.392Z,96426.22
2023-10-15T12:30:29.630Z,96426.31
2023-10-15T12:32:59.407Z,96424.25
2023-10-15T12:35:29.380Z,96400.81
2023-10-15T12:38:03.273Z,96430.53
2023-10-15T12:40:33.059Z,96442.56
2023-10-15T12:43:01.139Z,96410.81
2023-10-15T12:45:30.129Z,96440.78
2023-10-15T12:48:00.348Z,96450.50
2023-10-15T12:50:31.960Z,96431.84
2023-10-15T12:53:00.159Z,96440.78
2023-10-15T12:55:27.913Z,96437.50
2023-10-15T12:57:55.635Z,96459.28
2023-10-15T13:00:23.538Z,96428.81
2023-10-15T13:02:57.980Z,96449.47
2023-10-15T13:05:27.428Z,96444.59
2023-10-15T13:07:57.430Z,96383.63
2023-10-15T13:10:25.807Z,96446.19
2023-10-15T13:12:53.842Z,96399.25
2023-10-15T13:15:22.841Z,96452.97
2023-10-15T13:17:51.871Z,96417.28
2023-10-15T13:20:20.018Z,96444.75
2023-10-15T13:23:03.999Z,96442.84
2023-10-15T13:25:33.118Z,96451.13
2023-10-15T13:28:00.736Z,96451.78
2023-10-15T13:30:28.446Z,96449.22
2023-10-15T13:32:57.333Z,96436.47
2023-10-15T13:35:25.349Z,96453.56
2023-10-15T13:37:54.793Z,96446.41
2023-10-15T13:40:24.799Z,96453.53
2023-10-15T13:42:53.749Z,96456.50
2023-10-15T13:45:21.327Z,96454.91
2023-10-15T13:47:49.168Z,96457.44
2023-10-15T13:50:19.415Z,96457.09
2023-10-15T13:52:48.453Z,96456.75
2023-10-15T13:55:16.446Z,96449.66
2023-10-15T13:57:44.201Z,96459.03
2023-10-15T14:00:17.178Z,96450.69
2023-10-15T14:02:46.330Z,96458.00
2023-10-15T14:05:17.104Z,96463.25
2023-10-15T14:07:45.850Z,96464.13
2023-10-15T14:10:13.901Z,96465.16
2023-10-15T14:12:41.669Z,96469.25
2023-10-15T14:15:14.409Z,96399.19
2023-10-15T14:17:45.002Z,96471.03
2023-10-15T14:20:15.906Z,96477.59
2023-10-15T14:22:43.819Z,96486.78
2023-10-15T14:25:11.424Z,96451.94
2023-10-15T14:27:39.092Z,96487.25
2023-10-15T14:30:08.715Z,96474.75
2023-10-15T14:32:37.059Z,96487.38
2023-10-15T14:35:10.497Z,96475.44
2023-10-15T14:37:39.372Z,96479.03
2023-10-15T14:40:08.315Z,96481.16
2023-10-15T14:42:35.906Z,96475.94
2023-10-15T14:45:03.439Z,96474.09
2023-10-15T14:47:31.328Z,96441.69
2023-10-15T14:49:59.016Z,96487.19
2023-10-15T14:52:27.967Z,96458.34
2023-10-15T14:54:55.475Z,96480.63
2023-10-15T14:57:23.155Z,96479.09
2023-10-15T14:59:50.719Z,96468.78
2023-10-15T15:02:18.223Z,96485.66
2023-10-15T15:04:45.980Z,96482.47
2023-10-15T15:07:13.616Z,96490.09
2023-10-15T15:09:44.879Z,96503.06
2023-10-15T15:12:12.824Z,96499.69
2023-10-15T15:14:40.338Z,96503.75
2023-10-15T15:17:08.630Z,96506.31
2023-10-15T15:19:36.256Z,96507.44
2023-10-15T15:22:05.822Z,96479.75
2023-10-15T15:24:35.010Z,96507.19
2023-10-15T15:27:03.953Z,96493.72
2023-10-15T15:29:31.490Z,96511.03
2023-10-15T15:31:59.161Z,96508.81
2023-10-15T15:34:27.152Z,96508.53
2023-10-15T15:36:55.002Z,96511.44
2023-10-15T15:39:22.461Z,96511.09
2023-10-15T15:41:50.058Z,96510.41
2023-10-15T15:44:22.671Z,96506.31
2023-10-15T15:46:51.187Z,96493.69
2023-10-15T15:49:18.685Z,96508.94
2023-10-15T15:51:46.206Z,96518.56
2023-10-15T15:54:14.406Z,96516.53
2023-10-15T15:56:41.912Z,96521.91
2023-10-15T15:59:10.227Z,96521.56
2023-10-15T16:04:11.515Z,96531.06
2023-10-15T16:06:39.721Z,96526.84
2023-10-15T16:09:09.793Z,96529.34
2023-10-15T16:11:37.452Z,96538.72
2023-10-15T16:14:05.132Z,96531.41
2023-10-15T16:16:32.627Z,96528.56
2023-10-15T16:19:01.445Z,96539.31
2023-10-15T16:21:28.903Z,96543.00
2023-10-15T16:23:56.496Z,96518.09
2023-10-15T16:26:25.009Z,96541.78
2023-10-15T16:28:52.990Z,96541.91
2023-10-15T16:31:20.639Z,96534.78
2023-10-15T16:33:48.226Z,96540.66
2023-10-15T16:36:17.131Z,96547.25
2023-10-15T16:38:44.599Z,96557.34
2023-10-15T16:41:12.411Z,96552.91
2023-10-15T16:43:39.963Z,96557.59
2023-10-15T16:46:07.712Z,96559.22
2023-10-15T16:48:35.373Z,96560.72
2023-10-15T16:51:10.256Z,96563.84
2023-10-15T16:53:47.860Z,96567.75
2023-10-15T16:56:15.416Z,96568.56
2023-10-15T16:58:43.077Z,96527.81
2023-10-15T17:01:10.666Z,96522.38
2023-10-15T17:03:38.224Z,96512.50
2023-10-15T17:06:06.371Z,96587.88
2023-10-15T17:08:33.886Z,96591.91
2023-10-15T17:11:02.982Z,96599.81
2023-10-15T17:13:30.581Z,96596.19
2023-10-15T17:15:58.102Z,96595.22
2023-10-15T17:18:25.989Z,96598.63
2023-10-15T17:20:53.557Z,96602.66
2023-10-15T17:23:21.709Z,96597.03
2023-10-15T17:25:50.605Z,96591.00
2023-10-15T17:28:21.471Z,96608.94
2023-10-15T17:30:49.066Z,96606.91
2023-10-15T17:33:16.683Z,96604.09
2023-10-15T17:35:44.197Z,96585.16
2023-10-15T17:38:12.983Z,96612.38
2023-10-15T17:40:42.999Z,96616.00
2023-10-15T17:43:10.921Z,96602.47
2023-10-15T17:45:39.955Z,96620.44
2023-10-15T17:48:08.753Z,96629.91
2023-10-15T17:50:36.424Z,96613.34
2023-10-15T17:53:06.104Z,96622.03
2023-10-15T17:55:33.791Z,96636.53
2023-10-15T17:58:01.628Z,96540.28
2023-10-15T18:00:31.010Z,96632.28
2023-10-15T18:03:00.702Z,96634.09
2023-10-15T18:05:28.538Z,96632.50
2023-10-15T18:07:56.129Z,96620.38
2023-10-15T18:10:24.140Z,96585.25
2023-10-15T18:12:51.730Z,96641.16
2023-10-15T18:15:19.351Z,96634.84
2023-10-15T18:17:47.010Z,96647.00
2023-10-15T18:20:17.873Z,96645.16
2023-10-15T18:22:47.620Z,96640.91
2023-10-15T18:25:16.523Z,96647.94
2023-10-15T18:27:44.544Z,96658.59
2023-10-15T18:30:12.688Z,96650.97
2023-10-15T18:32:40.320Z,96664.81
2023-10-15T18:35:08.829Z,96619.19
2023-10-15T18:37:37.746Z,96662.00
2023-10-15T18:40:07.144Z,96669.38
2023-10-15T18:42:34.791Z,96662.69
2023-10-15T18:45:02.550Z,96666.94
2023-10-15T18:47:34.869Z,96674.44
2023-10-15T18:50:02.465Z,96646.63
2023-10-15T18:52:30.095Z,96652.66
2023-10-15T18:54:58.992Z,96666.38
2023-10-15T18:57:27.792Z,96654.50
2023-10-15T18:59:55.961Z,96656.09
2023-10-15T19:02:24.426Z,96671.22
2023-10-15T19:04:52.342Z,96670.03
2023-10-15T19:07:19.967Z,96670.84
2023-10-15T19:09:47.465Z,96663.81
2023-10-15T19:12:16.618Z,96673.06
2023-10-15T19:14:44.199Z,96684.09
2023-10-15T19:17:12.009Z,96668.53
2023-10-15T19:19:40.524Z,96655.47
2023-10-15T19:22:09.029Z,96659.25
2023-10-15T19:24:37.027Z,96680.44
2023-10-15T19:27:05.424Z,96687.16
2023-10-15T19:29:34.666Z,96629.84
2023-10-15T19:32:02.387Z,96682.56
2023-10-15T19:34:30.109Z,96678.72
2023-10-15T19:36:57.940Z,96635.66
2023-10-15T19:39:27.203Z,96626.53
2023-10-15T19:41:54.896Z,96688.13
2023-10-15T19:44:22.869Z,96670.94
2023-10-15T19:46:51.942Z,96683.72
2023-10-15T19:49:19.941Z,96684.31
2023-10-15T19:51:47.942Z,96686.28
2023-10-15T19:54:16.104Z,96694.69
2023-10-15T19:56:44.615Z,96686.22
2023-10-15T19:59:12.486Z,96681.50
2023-10-15T20:01:40.327Z,96696.56
2023-10-15T20:04:09.690Z,96678.75
2023-10-15T20:06:37.851Z,96693.13
2023-10-15T20:09:11.200Z,96657.91
2023-10-15T20:11:39.434Z,96699.00
2023-10-15T20:14:07.609Z,96690.00
2023-10-15T20:16:35.573Z,96611.41
2023-10-15T20:19:03.680Z,96653.13
2023-10-15T20:21:35.892Z,96697.47
2023-10-15T20:24:04.740Z,96710.72
2023-10-15T20:26:32.409Z,96710.31
2023-10-15T20:29:00.105Z,96701.06
2023-10-15T20:31:27.768Z,96693.53
2023-10-15T20:33:55.836Z,96681.00
2023-10-15T20:36:24.066Z,96702.22
2023-10-15T20:38:53.098Z,96709.25
2023-10-15T20:41:20.986Z,96701.59
2023-10-15T20:43:48.969Z,96705.66
2023-10-15T20:46:16.827Z,96564.13
2023-10-15T20:48:44.413Z,96697.44
2023-10-15T20:51:12.069Z,96699.44
2023-10-15T20:53:39.570Z,96702.84
2023-10-15T20:56:08.457Z,96703.66
2023-10-15T20:58:35.966Z,96710.59
2023-10-15T21:01:06.348Z,96709.34
2023-10-15T21:03:34.036Z,96715.91
2023-10-15T21:06:03.030Z,96708.91
2023-10-15T21:08:32.019Z,96703.84
2023-10-15T21:11:00.240Z,96700.59
2023-10-15T21:13:29.336Z,96697.50
2023-10-15T21:15:57.583Z,96677.66
2023-10-15T21:18:25.911Z,96697.59
2023-10-15T21:20:53.421Z,96680.94
2023-10-15T21:23:20.883Z,96697.66
2023-10-15T21:25:48.366Z,96692.16
2023-10-15T21:28:15.849Z,96688.31
2023-10-15T21:30:44.760Z,96668.06
2023-10-15T21:33:12.420Z,96666.59
2023-10-15T21:35:39.954Z,96681.47
2023-10-15T21:38:07.721Z,96679.97
2023-10-15T21:40:35.224Z,96677.44
2023-10-15T21:43:05.596Z,96673.50
2023-10-15T21:45:33.199Z,96678.91
2023-10-15T21:48:02.230Z,96675.81
2023-10-15T21:50:30.095Z,96672.97
2023-10-15T21:52:57.723Z,96676.94
2023-10-15T21:55:25.340Z,96678.34
2023-10-15T21:57:53.467Z,96613.63
2023-10-15T22:00:30.687Z,96669.09
2023-10-15T22:02:58.739Z,96654.00
2023-10-15T22:05:27.751Z,96658.47
2023-10-15T22:07:55.270Z,96658.56
2023-10-15T22:10:23.269Z,96664.66
2023-10-15T22:12:51.626Z,96660.00
2023-10-15T22:15:19.227Z,96658.03
2023-10-15T22:17:48.442Z,96664.59
2023-10-15T22:20:22.758Z,96657.41
2023-10-15T22:22:56.023Z,96626.69
2023-10-15T22:25:24.379Z,96659.03
2023-10-15T22:27:51.937Z,96652.09
2023-10-15T22:30:22.491Z,96660.44
2023-10-15T22:32:51.552Z,96659.16
2023-10-15T22:35:24.818Z,96659.03
2023-10-15T22:37:54.150Z,96647.38
2023-10-15T22:40:25.428Z,96653.16
2023-10-15T22:42:52.945Z,96613.03
2023-10-15T22:45:21.742Z,96658.16
2023-10-15T22:47:51.141Z,96657.94
2023-10-15T22:50:18.796Z,96658.13
2023-10-15T22:52:46.333Z,96651.59
2023-10-15T22:55:15.220Z,96650.06
2023-10-15T22:57:42.922Z,96654.81
2023-10-15T23:00:12.826Z,96646.28
2023-10-15T23:02:42.109Z,96650.81
2023-10-15T23:05:11.177Z,96651.84
2023-10-15T23:07:39.310Z,96647.69
2023-10-15T23:10:08.644Z,96653.34
2023-10-15T23:12:38.073Z,96657.41
2023-10-15T23:15:07.231Z,96659.84
2023-10-15T23:17:35.897Z,96631.88
2023-10-15T23:20:16.616Z,96654.16
2023-10-15T23:22:45.619Z,96648.88
2023-10-15T23:25:13.482Z,96624.44
2023-10-15T23:27:43.151Z,96640.91
2023-10-15T23:30:14.095Z,96640.25
2023-10-15T23:32:42.070Z,96638.88
2023-10-15T23:35:11.305Z,96632.88
2023-10-15T23:37:39.802Z,96639.00
2023-10-15T23:40:13.810Z,96628.16
2023-10-15T23:42:42.771Z,96628.50
2023-10-15T23:45:12.670Z,96628.16
2023-10-15T23:47:41.202Z,96627.00
2023-10-15T23:50:15.979Z,96626.34
2023-10-15T23:52:44.784Z,96624.00
2023-10-15T23:55:17.005Z,96626.50
2023-10-15T23:57:50.450Z,96636.25
